sensor_id;sensor_type;location;lat;lon;timestamp;pressure;altitude;pressure_sealevel;temperature;humidity
6020;BME280;3038;51.122;6.840;2023-02-28T00:00:06;102668.34;;;0.10;68.71
6020;BME280;3038;51.122;6.840;2023-02-28T00:02:40;102675.25;;;0.11;68.63
6020;BME280;3038;51.122;6.840;2023-02-28T00:05:06;102670.25;;;0.04;68.81
6020;BME280;3038;51.122;6.840;2023-02-28T00:07:36;102672.97;;;0.01;69.11
6020;BME280;3038;51.122;6.840;2023-02-28T00:10:02;102666.00;;;-0.01;69.05
6020;BME280;3038;51.122;6.840;2023-02-28T00:12:28;102658.16;;;0.01;68.74
6020;BME280;3038;51.122;6.840;2023-02-28T00:14:53;102667.75;;;0.01;69.27
6020;BME280;3038;51.122;6.840;2023-02-28T00:17:19;102667.75;;;0.01;68.67
6020;BME280;3038;51.122;6.840;2023-02-28T00:19:50;102670.38;;;-0.01;69.21
6020;BME280;3038;51.122;6.840;2023-02-28T00:22:17;102662.78;;;-0.09;69.80
6020;BME280;3038;51.122;6.840;2023-02-28T00:24:43;102663.81;;;-0.14;69.13
6020;BME280;3038;51.122;6.840;2023-02-28T00:27:09;102672.69;;;-0.21;69.88
6020;BME280;3038;51.122;6.840;2023-02-28T00:29:34;102667.59;;;-0.26;69.47
6020;BME280;3038;51.122;6.840;2023-02-28T00:32:00;102670.38;;;-0.32;70.34
6020;BME280;3038;51.122;6.840;2023-02-28T00:34:25;102668.63;;;-0.32;70.38
6020;BME280;3038;51.122;6.840;2023-02-28T00:36:51;102674.75;;;-0.33;70.71
6020;BME280;3038;51.122;6.840;2023-02-28T00:39:16;102673.00;;;-0.32;70.58
6020;BME280;3038;51.122;6.840;2023-02-28T00:41:41;102675.69;;;-0.35;70.34
6020;BME280;3038;51.122;6.840;2023-02-28T00:44:07;102670.56;;;-0.38;71.21
6020;BME280;3038;51.122;6.840;2023-02-28T00:46:32;102677.56;;;-0.40;71.22
6020;BME280;3038;51.122;6.840;2023-02-28T00:48:58;102669.72;;;-0.40;71.27
6020;BME280;3038;51.122;6.840;2023-02-28T00:51:23;102672.28;;;-0.37;70.98
6020;BME280;3038;51.122;6.840;2023-02-28T00:53:49;102666.16;;;-0.36;71.09
6020;BME280;3038;51.122;6.840;2023-02-28T00:56:14;102667.84;;;-0.35;70.90
6020;BME280;3038;51.122;6.840;2023-02-28T00:58:39;102667.78;;;-0.32;70.72
6020;BME280;3038;51.122;6.840;2023-02-28T01:01:05;102677.25;;;-0.30;70.40
6020;BME280;3038;51.122;6.840;2023-02-28T01:03:30;102678.13;;;-0.29;70.18
6020;BME280;3038;51.122;6.840;2023-02-28T01:05:56;102674.66;;;-0.30;70.51
6020;BME280;3038;51.122;6.840;2023-02-28T01:08:21;102672.94;;;-0.31;70.12
6020;BME280;3038;51.122;6.840;2023-02-28T01:10:47;102671.25;;;-0.32;70.58
6020;BME280;3038;51.122;6.840;2023-02-28T01:13:13;102675.69;;;-0.35;70.65
6020;BME280;3038;51.122;6.840;2023-02-28T01:15:41;102669.91;;;-0.46;71.39
6020;BME280;3038;51.122;6.840;2023-02-28T01:18:08;102670.88;;;-0.50;71.18
6020;BME280;3038;51.122;6.840;2023-02-28T01:20:36;102677.84;;;-0.51;71.50
6020;BME280;3038;51.122;6.840;2023-02-28T01:23:02;102672.59;;;-0.49;71.58
6020;BME280;3038;51.122;6.840;2023-02-28T01:25:27;102668.94;;;-0.44;71.50
6020;BME280;3038;51.122;6.840;2023-02-28T01:27:52;102670.72;;;-0.44;71.12
6020;BME280;3038;51.122;6.840;2023-02-28T01:30:18;102670.72;;;-0.44;71.10
6020;BME280;3038;51.122;6.840;2023-02-28T01:32:43;102666.47;;;-0.48;71.09
6020;BME280;3038;51.122;6.840;2023-02-28T01:35:08;102671.78;;;-0.52;71.79
6020;BME280;3038;51.122;6.840;2023-02-28T01:37:34;102670.94;;;-0.54;71.36
6020;BME280;3038;51.122;6.840;2023-02-28T01:39:59;102667.47;;;-0.53;71.37
6020;BME280;3038;51.122;6.840;2023-02-28T01:42:24;102670.88;;;-0.50;71.03
6020;BME280;3038;51.122;6.840;2023-02-28T01:45:27;102669.19;;;-0.52;71.32
6020;BME280;3038;51.122;6.840;2023-02-28T01:48:05;102667.47;;;-0.53;71.35
6020;BME280;3038;51.122;6.840;2023-02-28T01:50:36;102661.34;;;-0.52;71.33
6020;BME280;3038;51.122;6.840;2023-02-28T01:53:06;102664.81;;;-0.51;70.47
6020;BME280;3038;51.122;6.840;2023-02-28T01:55:32;102663.94;;;-0.52;70.56
6020;BME280;3038;51.122;6.840;2023-02-28T01:58:01;102661.41;;;-0.53;71.22
6020;BME280;3038;51.122;6.840;2023-02-28T02:00:28;102662.31;;;-0.56;71.65
6020;BME280;3038;51.122;6.840;2023-02-28T02:03:00;102662.50;;;-0.62;71.93
6020;BME280;3038;51.122;6.840;2023-02-28T02:05:30;102656.41;;;-0.62;71.85
6020;BME280;3038;51.122;6.840;2023-02-28T02:08:04;102658.91;;;-0.58;71.95
6020;BME280;3038;51.122;6.840;2023-02-28T02:10:43;102657.16;;;-0.59;72.42
6020;BME280;3038;51.122;6.840;2023-02-28T02:13:37;102652.78;;;-0.57;72.02
6020;BME280;3038;51.122;6.840;2023-02-28T02:16:12;102648.53;;;-0.61;71.68
6020;BME280;3038;51.122;6.840;2023-02-28T02:27:20;102637.03;;;-0.54;72.03
6020;BME280;3038;51.122;6.840;2023-02-28T02:36:42;102640.84;;;-0.65;74.93
6020;BME280;3038;51.122;6.840;2023-02-28T02:41:53;102639.25;;;-0.71;74.16
6020;BME280;3038;51.122;6.840;2023-02-28T02:44:33;102640.28;;;-0.78;74.40
6020;BME280;3038;51.122;6.840;2023-02-28T02:47:09;102627.41;;;-0.84;73.67
6020;BME280;3038;51.122;6.840;2023-02-28T02:49:37;102628.47;;;-0.91;73.93
6020;BME280;3038;51.122;6.840;2023-02-28T02:52:06;102632.97;;;-0.96;74.32
6020;BME280;3038;51.122;6.840;2023-02-28T02:54:38;102632.13;;;-0.98;74.00
6020;BME280;3038;51.122;6.840;2023-02-28T02:57:19;102623.50;;;-1.00;75.00
6020;BME280;3038;51.122;6.840;2023-02-28T02:59:46;102623.72;;;-1.10;74.70
6020;BME280;3038;51.122;6.840;2023-02-28T03:02:16;102630.81;;;-1.15;74.75
6020;BME280;3038;51.122;6.840;2023-02-28T03:04:57;102628.25;;;-1.18;75.95
6020;BME280;3038;51.122;6.840;2023-02-28T03:07:26;102633.44;;;-1.16;75.81
6020;BME280;3038;51.122;6.840;2023-02-28T03:09:56;102634.31;;;-1.16;75.16
6020;BME280;3038;51.122;6.840;2023-02-28T03:12:28;102630.81;;;-1.15;76.04
6020;BME280;3038;51.122;6.840;2023-02-28T03:15:18;102639.47;;;-1.14;76.72
6020;BME280;3038;51.122;6.840;2023-02-28T03:20:47;102632.56;;;-1.17;76.68
6020;BME280;3038;51.122;6.840;2023-02-28T03:23:21;102633.69;;;-1.25;76.97
6020;BME280;3038;51.122;6.840;2023-02-28T03:26:11;102636.28;;;-1.27;77.71
6020;BME280;3038;51.122;6.840;2023-02-28T03:29:02;102625.13;;;-1.31;77.76
6020;BME280;3038;51.122;6.840;2023-02-28T03:31:36;102633.03;;;-1.35;77.48
6020;BME280;3038;51.122;6.840;2023-02-28T03:34:22;102622.69;;;-1.38;78.06
6020;BME280;3038;51.122;6.840;2023-02-28T03:36:53;102623.63;;;-1.42;77.73
6020;BME280;3038;51.122;6.840;2023-02-28T03:39:24;102621.97;;;-1.45;78.12
6020;BME280;3038;51.122;6.840;2023-02-28T03:41:59;102618.47;;;-1.45;78.46
6020;BME280;3038;51.122;6.840;2023-02-28T03:44:29;102621.09;;;-1.45;79.12
6020;BME280;3038;51.122;6.840;2023-02-28T03:47:17;102622.94;;;-1.50;79.64
6020;BME280;3038;51.122;6.840;2023-02-28T03:50:01;102622.84;;;-1.44;79.40
6020;BME280;3038;51.122;6.840;2023-02-28T03:52:33;102621.03;;;-1.42;79.58
6020;BME280;3038;51.122;6.840;2023-02-28T03:55:02;102626.09;;;-1.36;79.60
6020;BME280;3038;51.122;6.840;2023-02-28T03:57:44;102632.16;;;-1.36;79.29
6020;BME280;3038;51.122;6.840;2023-02-28T04:00:20;102632.16;;;-1.36;79.19
6020;BME280;3038;51.122;6.840;2023-02-28T04:02:46;102635.66;;;-1.35;79.35
6020;BME280;3038;51.122;6.840;2023-02-28T04:05:18;102632.03;;;-1.30;79.22
6020;BME280;3038;51.122;6.840;2023-02-28T04:07:44;102632.78;;;-1.26;78.57
6020;BME280;3038;51.122;6.840;2023-02-28T04:10:10;102628.41;;;-1.24;78.76
6020;BME280;3038;51.122;6.840;2023-02-28T04:12:36;102637.94;;;-1.23;78.55
6020;BME280;3038;51.122;6.840;2023-02-28T04:15:02;102638.00;;;-1.26;78.51
6020;BME280;3038;51.122;6.840;2023-02-28T04:17:27;102631.97;;;-1.28;78.22
6020;BME280;3038;51.122;6.840;2023-02-28T04:19:52;102635.50;;;-1.29;78.06
6020;BME280;3038;51.122;6.840;2023-02-28T04:22:22;102639.84;;;-1.31;78.42
6020;BME280;3038;51.122;6.840;2023-02-28T04:24:47;102647.78;;;-1.34;78.15
6020;BME280;3038;51.122;6.840;2023-02-28T04:27:13;102639.97;;;-1.34;78.37
6020;BME280;3038;51.122;6.840;2023-02-28T04:29:40;102643.56;;;-1.40;78.52
6020;BME280;3038;51.122;6.840;2023-02-28T04:32:10;102639.22;;;-1.39;77.95
6020;BME280;3038;51.122;6.840;2023-02-28T04:34:38;102640.91;;;-1.38;78.16
6020;BME280;3038;51.122;6.840;2023-02-28T04:37:04;102647.84;;;-1.37;77.61
6020;BME280;3038;51.122;6.840;2023-02-28T04:39:29;102647.03;;;-1.39;77.65
6020;BME280;3038;51.122;6.840;2023-02-28T04:41:55;102649.63;;;-1.39;77.74
6020;BME280;3038;51.122;6.840;2023-02-28T04:44:22;102651.34;;;-1.38;77.16
6020;BME280;3038;51.122;6.840;2023-02-28T04:46:48;102647.03;;;-1.39;76.88
6020;BME280;3038;51.122;6.840;2023-02-28T04:49:14;102652.34;;;-1.44;77.21
6020;BME280;3038;51.122;6.840;2023-02-28T04:51:40;102654.09;;;-1.44;76.79
6020;BME280;3038;51.122;6.840;2023-02-28T04:54:06;102658.31;;;-1.40;76.67
6020;BME280;3038;51.122;6.840;2023-02-28T04:56:31;102654.00;;;-1.41;76.44
6020;BME280;3038;51.122;6.840;2023-02-28T04:58:57;102654.00;;;-1.41;76.33
6020;BME280;3038;51.122;6.840;2023-02-28T05:01:25;102657.56;;;-1.45;76.05
6020;BME280;3038;51.122;6.840;2023-02-28T05:03:52;102652.59;;;-1.54;76.34
6020;BME280;3038;51.122;6.840;2023-02-28T05:06:19;102656.19;;;-1.62;75.88
6020;BME280;3038;51.122;6.840;2023-02-28T05:08:45;102661.47;;;-1.65;76.42
6020;BME280;3038;51.122;6.840;2023-02-28T05:11:20;102654.53;;;-1.64;76.34
6020;BME280;3038;51.122;6.840;2023-02-28T05:13:47;102656.34;;;-1.68;76.59
6020;BME280;3038;51.122;6.840;2023-02-28T05:16:13;102654.56;;;-1.66;75.98
6020;BME280;3038;51.122;6.840;2023-02-28T05:18:38;102651.06;;;-1.65;75.93
6020;BME280;3038;51.122;6.840;2023-02-28T05:21:04;102661.41;;;-1.62;75.24
6020;BME280;3038;51.122;6.840;2023-02-28T05:23:30;102663.97;;;-1.59;74.84
6020;BME280;3038;51.122;6.840;2023-02-28T05:25:56;102662.22;;;-1.60;74.93
6020;BME280;3038;51.122;6.840;2023-02-28T05:28:21;102655.34;;;-1.62;74.74
6020;BME280;3038;51.122;6.840;2023-02-28T05:30:47;102652.78;;;-1.64;74.71
6020;BME280;3038;51.122;6.840;2023-02-28T05:33:13;102655.41;;;-1.65;74.24
6020;BME280;3038;51.122;6.840;2023-02-28T05:35:39;102652.03;;;-1.69;74.29
6020;BME280;3038;51.122;6.840;2023-02-28T05:38:05;102654.66;;;-1.70;74.47
6020;BME280;3038;51.122;6.840;2023-02-28T05:40:31;102658.94;;;-1.68;73.99
6020;BME280;3038;51.122;6.840;2023-02-28T05:42:56;102665.06;;;-1.69;74.01
6020;BME280;3038;51.122;6.840;2023-02-28T05:45:21;102660.75;;;-1.71;73.54
6020;BME280;3038;51.122;6.840;2023-02-28T05:47:46;102660.72;;;-1.70;73.39
6020;BME280;3038;51.122;6.840;2023-02-28T05:50:12;102663.31;;;-1.70;73.46
6020;BME280;3038;51.122;6.840;2023-02-28T05:52:37;102666.81;;;-1.71;73.41
6020;BME280;3038;51.122;6.840;2023-02-28T05:55:03;102669.63;;;-1.80;73.32
6020;BME280;3038;51.122;6.840;2023-02-28T05:57:28;102668.72;;;-1.79;72.88
6020;BME280;3038;51.122;6.840;2023-02-28T05:59:54;102667.94;;;-1.83;73.35
6020;BME280;3038;51.122;6.840;2023-02-28T06:02:19;102667.16;;;-1.86;73.18
6020;BME280;3038;51.122;6.840;2023-02-28T06:04:45;102668.09;;;-1.90;73.05
6020;BME280;3038;51.122;6.840;2023-02-28T06:07:10;102662.84;;;-1.89;73.49
6020;BME280;3038;51.122;6.840;2023-02-28T06:09:37;102663.72;;;-1.88;73.07
6020;BME280;3038;51.122;6.840;2023-02-28T06:12:04;102671.53;;;-1.88;73.09
6020;BME280;3038;51.122;6.840;2023-02-28T06:14:35;102672.41;;;-1.89;72.92
6020;BME280;3038;51.122;6.840;2023-02-28T06:17:02;102677.56;;;-1.86;72.91
6020;BME280;3038;51.122;6.840;2023-02-28T06:19:28;102680.13;;;-1.85;72.87
6020;BME280;3038;51.122;6.840;2023-02-28T06:21:55;102680.94;;;-1.81;72.91
6020;BME280;3038;51.122;6.840;2023-02-28T06:24:23;102680.81;;;-1.76;72.45
6020;BME280;3038;51.122;6.840;2023-02-28T06:26:49;102684.28;;;-1.76;72.30
6020;BME280;3038;51.122;6.840;2023-02-28T06:29:15;102683.47;;;-1.78;71.67
6020;BME280;3038;51.122;6.840;2023-02-28T06:31:42;102687.81;;;-1.78;72.12
6020;BME280;3038;51.122;6.840;2023-02-28T06:34:09;102695.50;;;-1.72;71.96
6020;BME280;3038;51.122;6.840;2023-02-28T06:36:40;102696.31;;;-1.69;71.59
6020;BME280;3038;51.122;6.840;2023-02-28T06:39:07;102695.41;;;-1.68;71.09
6020;BME280;3038;51.122;6.840;2023-02-28T06:41:33;102699.56;;;-1.61;70.55
6020;BME280;3038;51.122;6.840;2023-02-28T06:44:03;102704.59;;;-1.51;70.73
6020;BME280;3038;51.122;6.840;2023-02-28T06:46:29;102704.41;;;-1.42;70.65
6020;BME280;3038;51.122;6.840;2023-02-28T06:48:54;102718.13;;;-1.34;69.92
6020;BME280;3038;51.122;6.840;2023-02-28T06:51:20;102712.72;;;-1.25;69.14
6020;BME280;3038;51.122;6.840;2023-02-28T06:53:47;102714.34;;;-1.21;69.68
6020;BME280;3038;51.122;6.840;2023-02-28T06:56:14;102716.72;;;-1.12;68.58
6020;BME280;3038;51.122;6.840;2023-02-28T06:58:40;102720.81;;;-1.00;68.26
6020;BME280;3038;51.122;6.840;2023-02-28T07:01:07;102725.75;;;-0.89;67.24
6020;BME280;3038;51.122;6.840;2023-02-28T07:03:32;102728.31;;;-0.86;67.86
6020;BME280;3038;51.122;6.840;2023-02-28T07:06:00;102728.19;;;-0.82;67.76
6020;BME280;3038;51.122;6.840;2023-02-28T07:08:26;102732.50;;;-0.81;66.92
6020;BME280;3038;51.122;6.840;2023-02-28T07:10:55;102728.88;;;-0.75;67.51
6020;BME280;3038;51.122;6.840;2023-02-28T07:13:23;102729.69;;;-0.73;67.30
6020;BME280;3038;51.122;6.840;2023-02-28T07:18:23;102732.91;;;-0.62;66.89
6020;BME280;3038;51.122;6.840;2023-02-28T07:20:49;102731.06;;;-0.58;66.51
6020;BME280;3038;51.122;6.840;2023-02-28T07:23:14;102733.56;;;-0.54;65.77
6020;BME280;3038;51.122;6.840;2023-02-28T07:25:39;102732.47;;;-0.45;66.08
6020;BME280;3038;51.122;6.840;2023-02-28T07:28:05;102734.00;;;-0.36;65.79
6020;BME280;3038;51.122;6.840;2023-02-28T07:30:30;102739.94;;;-0.31;65.60
6020;BME280;3038;51.122;6.840;2023-02-28T07:32:55;102736.31;;;-0.24;65.74
6020;BME280;3038;51.122;6.840;2023-02-28T07:35:21;102735.41;;;-0.23;65.77
6020;BME280;3038;51.122;6.840;2023-02-28T07:37:47;102741.53;;;-0.24;65.34
6020;BME280;3038;51.122;6.840;2023-02-28T07:40:13;102732.69;;;-0.20;64.52
6020;BME280;3038;51.122;6.840;2023-02-28T07:42:40;102741.13;;;-0.10;64.79
6020;BME280;3038;51.122;6.840;2023-02-28T07:45:07;102740.19;;;-0.08;65.19
6020;BME280;3038;51.122;6.840;2023-02-28T07:47:33;102734.81;;;-0.02;65.14
6020;BME280;3038;51.122;6.840;2023-02-28T07:49:59;102742.47;;;0.05;63.58
6020;BME280;3038;51.122;6.840;2023-02-28T07:52:24;102743.84;;;0.18;63.06
6020;BME280;3038;51.122;6.840;2023-02-28T07:54:50;102747.91;;;0.28;62.81
6020;BME280;3038;51.122;6.840;2023-02-28T07:57:16;102740.75;;;0.35;61.75
6020;BME280;3038;51.122;6.840;2023-02-28T07:59:42;102739.63;;;0.43;62.07
6020;BME280;3038;51.122;6.840;2023-02-28T08:02:12;102732.38;;;0.53;61.90
6020;BME280;3038;51.122;6.840;2023-02-28T08:04:38;102738.34;;;0.58;60.57
6020;BME280;3038;51.122;6.840;2023-02-28T08:07:04;102741.56;;;0.66;61.25
6020;BME280;3038;51.122;6.840;2023-02-28T08:09:29;102742.13;;;0.76;60.67
6020;BME280;3038;51.122;6.840;2023-02-28T08:11:55;102746.28;;;0.83;60.11
6020;BME280;3038;51.122;6.840;2023-02-28T08:14:20;102747.75;;;0.92;60.01
6020;BME280;3038;51.122;6.840;2023-02-28T08:16:46;102742.22;;;1.01;58.66
6020;BME280;3038;51.122;6.840;2023-02-28T08:19:11;102736.63;;;1.13;58.32
6020;BME280;3038;51.122;6.840;2023-02-28T08:21:37;102739.03;;;1.19;57.46
6020;BME280;3038;51.122;6.840;2023-02-28T08:24:02;102741.03;;;1.38;57.96
6020;BME280;3038;51.122;6.840;2023-02-28T08:26:27;102741.34;;;1.55;55.54
6020;BME280;3038;51.122;6.840;2023-02-28T08:28:53;102741.84;;;1.66;55.70
6020;BME280;3038;51.122;6.840;2023-02-28T08:31:18;102746.53;;;1.82;54.16
6020;BME280;3038;51.122;6.840;2023-02-28T08:33:44;102745.22;;;1.93;54.05
6020;BME280;3038;51.122;6.840;2023-02-28T08:36:10;102747.59;;;2.01;52.34
6020;BME280;3038;51.122;6.840;2023-02-28T08:38:36;102746.41;;;2.10;52.99
6020;BME280;3038;51.122;6.840;2023-02-28T08:41:06;102746.41;;;2.10;53.53
6020;BME280;3038;51.122;6.840;2023-02-28T08:43:33;102747.09;;;2.15;52.25
6020;BME280;3038;51.122;6.840;2023-02-28T08:45:59;102751.63;;;2.35;51.42
6020;BME280;3038;51.122;6.840;2023-02-28T08:48:29;102738.09;;;2.45;51.38
6020;BME280;3038;51.122;6.840;2023-02-28T08:53:24;102745.84;;;2.72;47.96
6020;BME280;3038;51.122;6.840;2023-02-28T08:56:02;102742.81;;;2.82;47.98
6020;BME280;3038;51.122;6.840;2023-02-28T08:58:28;102748.78;;;2.86;49.28
6020;BME280;3038;51.122;6.840;2023-02-28T09:00:54;102741.44;;;2.94;50.07
6020;BME280;3038;51.122;6.840;2023-02-28T09:03:20;102750.72;;;3.03;48.63
6020;BME280;3038;51.122;6.840;2023-02-28T09:05:56;102749.50;;;3.12;46.46
6020;BME280;3038;51.122;6.840;2023-02-28T09:08:23;102749.00;;;3.24;47.70
6020;BME280;3038;51.122;6.840;2023-02-28T09:10:49;102751.25;;;3.33;47.32
6020;BME280;3038;51.122;6.840;2023-02-28T09:13:14;102749.63;;;3.30;45.56
6020;BME280;3038;51.122;6.840;2023-02-28T09:15:40;102744.44;;;3.29;47.53
6020;BME280;3038;51.122;6.840;2023-02-28T09:18:05;102748.91;;;3.47;47.46
6020;BME280;3038;51.122;6.840;2023-02-28T09:20:31;102747.38;;;3.64;46.98
6020;BME280;3038;51.122;6.840;2023-02-28T09:22:56;102734.34;;;3.60;47.43
6020;BME280;3038;51.122;6.840;2023-02-28T09:25:21;102729.44;;;3.73;45.09
6020;BME280;3038;51.122;6.840;2023-02-28T09:27:47;102728.84;;;3.87;45.60
6020;BME280;3038;51.122;6.840;2023-02-28T09:30:13;102734.59;;;3.95;45.54
6020;BME280;3038;51.122;6.840;2023-02-28T09:32:38;102728.19;;;4.02;45.84
6020;BME280;3038;51.122;6.840;2023-02-28T09:35:04;102720.53;;;4.17;46.13
6020;BME280;3038;51.122;6.840;2023-02-28T09:37:31;102725.44;;;4.43;44.60
6020;BME280;3038;51.122;6.840;2023-02-28T09:39:57;102723.84;;;4.77;44.74
6020;BME280;3038;51.122;6.840;2023-02-28T09:42:36;102721.91;;;4.99;44.30
6020;BME280;3038;51.122;6.840;2023-02-28T09:45:06;102716.75;;;5.15;42.78
6020;BME280;3038;51.122;6.840;2023-02-28T09:47:40;102718.38;;;5.35;42.81
6020;BME280;3038;51.122;6.840;2023-02-28T09:50:39;102717.00;;;5.45;40.59
6020;BME280;3038;51.122;6.840;2023-02-28T09:53:09;102711.25;;;5.72;43.13
6020;BME280;3038;51.122;6.840;2023-02-28T09:55:48;102723.16;;;5.79;38.79
6020;BME280;3038;51.122;6.840;2023-02-28T09:58:32;102721.00;;;5.87;41.94
6020;BME280;3038;51.122;6.840;2023-02-28T10:01:06;102729.16;;;6.00;38.60
6020;BME280;3038;51.122;6.840;2023-02-28T10:03:42;102729.34;;;6.12;39.81
6020;BME280;3038;51.122;6.840;2023-02-28T10:06:16;102722.56;;;5.91;41.18
6020;BME280;3038;51.122;6.840;2023-02-28T10:11:12;102729.75;;;5.87;40.57
6020;BME280;3038;51.122;6.840;2023-02-28T10:16:25;102731.41;;;6.72;39.54
6020;BME280;3038;51.122;6.840;2023-02-28T10:18:59;102729.75;;;6.69;40.12
6020;BME280;3038;51.122;6.840;2023-02-28T10:21:37;102717.00;;;9.74;34.80
6020;BME280;3038;51.122;6.840;2023-02-28T10:24:21;102714.63;;;10.83;32.22
6020;BME280;3038;51.122;6.840;2023-02-28T10:26:48;102710.16;;;10.47;34.21
6020;BME280;3038;51.122;6.840;2023-02-28T10:29:16;102708.63;;;12.09;33.26
6020;BME280;3038;51.122;6.840;2023-02-28T10:31:41;102710.72;;;12.60;32.22
6020;BME280;3038;51.122;6.840;2023-02-28T10:34:11;102712.78;;;9.97;33.63
6020;BME280;3038;51.122;6.840;2023-02-28T10:36:38;102709.28;;;8.92;36.67
6020;BME280;3038;51.122;6.840;2023-02-28T10:42:20;102710.75;;;10.26;34.06
6020;BME280;3038;51.122;6.840;2023-02-28T10:44:46;102705.34;;;12.82;31.08
6020;BME280;3038;51.122;6.840;2023-02-28T10:47:16;102705.63;;;14.35;27.59
6020;BME280;3038;51.122;6.840;2023-02-28T10:49:49;102692.38;;;14.64;27.06
6020;BME280;3038;51.122;6.840;2023-02-28T10:52:33;102691.03;;;15.09;25.98
6020;BME280;3038;51.122;6.840;2023-02-28T10:55:36;102684.13;;;14.27;26.78
6020;BME280;3038;51.122;6.840;2023-02-28T10:58:01;102696.88;;;11.54;30.59
6020;BME280;3038;51.122;6.840;2023-02-28T11:00:33;102686.56;;;9.93;33.15
6020;BME280;3038;51.122;6.840;2023-02-28T11:02:59;102698.88;;;10.56;32.58
6020;BME280;3038;51.122;6.840;2023-02-28T11:05:28;102689.56;;;8.28;35.28
6020;BME280;3038;51.122;6.840;2023-02-28T11:08:20;102690.47;;;11.10;31.92
6020;BME280;3038;51.122;6.840;2023-02-28T11:10:54;102681.44;;;13.66;27.36
6020;BME280;3038;51.122;6.840;2023-02-28T11:13:24;102677.13;;;14.05;28.18
6020;BME280;3038;51.122;6.840;2023-02-28T11:15:57;102679.75;;;10.64;31.59
6020;BME280;3038;51.122;6.840;2023-02-28T11:18:38;102676.09;;;13.24;28.78
6020;BME280;3038;51.122;6.840;2023-02-28T11:21:05;102671.56;;;13.87;27.81
6020;BME280;3038;51.122;6.840;2023-02-28T11:23:34;102668.25;;;11.69;30.48
6020;BME280;3038;51.122;6.840;2023-02-28T11:26:02;102671.13;;;14.13;27.32
6020;BME280;3038;51.122;6.840;2023-02-28T11:28:38;102664.41;;;14.78;26.15
6020;BME280;3038;51.122;6.840;2023-02-28T11:33:47;102677.34;;;15.22;26.29
6020;BME280;3038;51.122;6.840;2023-02-28T11:36:22;102672.56;;;15.06;24.72
6020;BME280;3038;51.122;6.840;2023-02-28T11:38:50;102673.84;;;14.82;26.00
6020;BME280;3038;51.122;6.840;2023-02-28T11:41:34;102669.03;;;14.26;25.31
6020;BME280;3038;51.122;6.840;2023-02-28T11:46:52;102673.94;;;16.78;23.72
6020;BME280;3038;51.122;6.840;2023-02-28T11:49:30;102668.91;;;17.63;23.54
6020;BME280;3038;51.122;6.840;2023-02-28T12:00:22;102670.69;;;17.28;22.64
6020;BME280;3038;51.122;6.840;2023-02-28T12:22:38;102641.09;;;20.41;21.18
6020;BME280;3038;51.122;6.840;2023-02-28T12:25:38;102653.19;;;20.76;18.74
6020;BME280;3038;51.122;6.840;2023-02-28T12:28:11;102644.13;;;20.38;20.33
6020;BME280;3038;51.122;6.840;2023-02-28T12:30:44;102646.63;;;19.77;20.10
6020;BME280;3038;51.122;6.840;2023-02-28T12:33:13;102638.28;;;19.95;20.13
6020;BME280;3038;51.122;6.840;2023-02-28T12:35:55;102635.69;;;19.46;20.07
6020;BME280;3038;51.122;6.840;2023-02-28T12:38:41;102628.22;;;19.81;20.17
6020;BME280;3038;51.122;6.840;2023-02-28T12:41:22;102633.38;;;19.27;19.50
6020;BME280;3038;51.122;6.840;2023-02-28T12:43:57;102621.22;;;19.47;20.80
6020;BME280;3038;51.122;6.840;2023-02-28T12:46:30;102597.19;;;18.56;21.29
6020;BME280;3038;51.122;6.840;2023-02-28T12:49:02;102599.75;;;19.07;20.28
6020;BME280;3038;51.122;6.840;2023-02-28T12:51:30;102607.09;;;19.29;21.01
6020;BME280;3038;51.122;6.840;2023-02-28T12:54:25;102594.59;;;19.69;20.33
6020;BME280;3038;51.122;6.840;2023-02-28T12:57:07;102595.22;;;19.79;20.23
6020;BME280;3038;51.122;6.840;2023-02-28T12:59:45;102593.00;;;19.19;20.72
6020;BME280;3038;51.122;6.840;2023-02-28T13:02:33;102589.50;;;18.78;20.09
6020;BME280;3038;51.122;6.840;2023-02-28T13:10:47;102571.00;;;19.71;20.58
6020;BME280;3038;51.122;6.840;2023-02-28T13:13:22;102574.06;;;19.99;19.82
6020;BME280;3038;51.122;6.840;2023-02-28T13:16:06;102582.22;;;19.19;19.87
6020;BME280;3038;51.122;6.840;2023-02-28T13:21:04;102556.44;;;19.88;20.25
6020;BME280;3038;51.122;6.840;2023-02-28T13:23:40;102561.41;;;18.88;20.08
6020;BME280;3038;51.122;6.840;2023-02-28T13:26:06;102549.81;;;17.46;21.54
6020;BME280;3038;51.122;6.840;2023-02-28T13:28:57;102552.06;;;16.81;22.12
6020;BME280;3038;51.122;6.840;2023-02-28T13:31:23;102555.00;;;15.14;24.23
6020;BME280;3038;51.122;6.840;2023-02-28T13:36:31;102551.72;;;13.94;26.46
6020;BME280;3038;51.122;6.840;2023-02-28T13:39:01;102547.72;;;13.69;27.49
6020;BME280;3038;51.122;6.840;2023-02-28T13:59:31;102545.03;;;14.19;25.46
6020;BME280;3038;51.122;6.840;2023-02-28T14:02:17;102540.88;;;14.65;26.03
6020;BME280;3038;51.122;6.840;2023-02-28T14:05:14;102528.66;;;15.84;23.02
6020;BME280;3038;51.122;6.840;2023-02-28T14:07:47;102514.94;;;15.69;23.93
6020;BME280;3038;51.122;6.840;2023-02-28T14:12:58;102518.47;;;14.27;25.84
6020;BME280;3038;51.122;6.840;2023-02-28T14:15:54;102517.25;;;13.81;25.90
6020;BME280;3038;51.122;6.840;2023-02-28T14:18:30;102517.66;;;12.64;28.35
6020;BME280;3038;51.122;6.840;2023-02-28T14:31:18;102521.38;;;10.02;31.37
6020;BME280;3038;51.122;6.840;2023-02-28T14:34:14;102513.00;;;9.95;30.85
6020;BME280;3038;51.122;6.840;2023-02-28T14:36:42;102518.09;;;9.98;29.96
6020;BME280;3038;51.122;6.840;2023-02-28T14:39:16;102517.06;;;9.88;31.74
6020;BME280;3038;51.122;6.840;2023-02-28T14:41:45;102522.22;;;9.66;31.43
6020;BME280;3038;51.122;6.840;2023-02-28T14:44:22;102516.56;;;9.83;32.25
6020;BME280;3038;51.122;6.840;2023-02-28T14:46:50;102511.78;;;10.60;30.69
6020;BME280;3038;51.122;6.840;2023-02-28T14:51:48;102516.69;;;9.82;31.67
6020;BME280;3038;51.122;6.840;2023-02-28T14:54:15;102512.44;;;9.79;31.72
6020;BME280;3038;51.122;6.840;2023-02-28T14:56:42;102511.00;;;9.62;32.12
6020;BME280;3038;51.122;6.840;2023-02-28T14:59:25;102512.50;;;9.41;31.76
6020;BME280;3038;51.122;6.840;2023-02-28T15:01:51;102508.91;;;9.42;33.14
6020;BME280;3038;51.122;6.840;2023-02-28T15:04:26;102505.63;;;8.87;33.96
6020;BME280;3038;51.122;6.840;2023-02-28T15:07:17;102501.66;;;8.42;34.84
6020;BME280;3038;51.122;6.840;2023-02-28T15:09:43;102506.44;;;8.35;34.68
6020;BME280;3038;51.122;6.840;2023-02-28T15:12:13;102503.13;;;8.46;33.30
6020;BME280;3038;51.122;6.840;2023-02-28T15:14:42;102499.84;;;8.55;33.94
6020;BME280;3038;51.122;6.840;2023-02-28T15:17:14;102506.94;;;8.42;34.42
6020;BME280;3038;51.122;6.840;2023-02-28T15:19:47;102495.50;;;8.41;33.87
6020;BME280;3038;51.122;6.840;2023-02-28T15:22:17;102499.75;;;8.30;34.72